Route Details

Aircraft Information
Group: North America Fleet
Types: B738, B752, B762, B763
Route Data
Distance: 409nm
Duration: 1h 50m
Origin METAR: CYHM 010600Z 23004KT 15SM SCT250 M14/M17 A3023 RMK CI3 SLP257
Dest. METAR: KRFD 010554Z 18003KT 10SM CLR M19/M22 A3036 RMK AO2 SLP298 4/007 T11891222 11150 21189 411281239 58004
Freight Data
(for Feb 1, 2023)
Load Factor:
74%
Manifested Cargo: 44,720lbs
Financial History
Total Freight: 238,344lbs
Average Load: 0lbs/flt
Fuel Used: 40,154lbs
Avg. Fuel Used: 0lbs/flt
Fuel Expense: $22,669
Avg. Fuel Expense: $0
Avg. Fuel Cost: $0/lbs
Total Gross Income: $624,461
Pilot Pay: $1,125
Total Expenses: $123,575
Total Revenue: $475,888
Average Revenue: $0

Capitol Logistics 472




CYHM
John C. Munro Hamilton International Airport
Hamilton, CA
KRFD
Chicago/Rockford International Airport
Rockford, US

Activity Log

Date Flight Route Aircraft Duration
11/25/2022 CPX472 DCT DERLO DCT HOCKE DCT FNT J94 PMM DCT FIYER DCT OBK DCT B762 1h 24m
11/16/2022 CPX472 Not Available B738 1h 30m
11/11/2022 CPX472 DCT DERLO DCT HOCKE DCT FNT J94 PMM DCT FIYER DCT OBK DCT B763 1h 23m
07/24/2022 CPX472 DERLO HOCKE B763 1h 39m
07/10/2022 CPX472 DERLO HOCKE B738 1h 18m